createdAt,value
2022-11-10T00:00:35.404Z,10.10
2022-11-10T00:04:17.151Z,10.10
2022-11-10T00:08:04.279Z,10.00
2022-11-10T00:11:46.539Z,10.10
2022-11-10T00:15:47.141Z,10.10
2022-11-10T00:19:29.587Z,10.10
2022-11-10T00:23:11.282Z,10.30
2022-11-10T00:26:53.525Z,10.40
2022-11-10T00:30:38.007Z,10.50
2022-11-10T00:34:19.696Z,10.60
2022-11-10T00:38:01.392Z,10.70
2022-11-10T00:41:43.227Z,10.80
2022-11-10T00:45:25.139Z,10.90
2022-11-10T00:49:07.107Z,10.90
2022-11-10T00:52:48.796Z,11.00
2022-11-10T00:56:30.516Z,11.00
2022-11-10T01:00:12.700Z,11.20
2022-11-10T01:03:55.250Z,11.20
2022-11-10T01:07:37.007Z,11.30
2022-11-10T01:11:27.420Z,11.30
2022-11-10T01:15:09.563Z,11.30
2022-11-10T01:18:53.599Z,11.40
2022-11-10T01:22:37.034Z,11.50
2022-11-10T01:26:19.571Z,11.40
2022-11-10T01:30:01.320Z,11.30
2022-11-10T01:33:43.460Z,11.20
2022-11-10T01:37:25.393Z,11.10
2022-11-10T01:41:10.020Z,11.10
2022-11-10T01:45:40.368Z,11.00
2022-11-10T01:49:28.350Z,10.90
2022-11-10T01:53:16.246Z,10.90
2022-11-10T01:57:02.848Z,10.80
2022-11-10T02:00:45.084Z,10.80
2022-11-10T02:04:27.104Z,10.80
2022-11-10T02:08:09.143Z,10.70
2022-11-10T02:11:53.501Z,10.70
2022-11-10T02:15:35.215Z,10.70
2022-11-10T02:19:22.984Z,10.70
2022-11-10T02:23:34.813Z,10.70
2022-11-10T02:27:16.496Z,10.80
2022-11-10T02:30:58.197Z,10.90
2022-11-10T02:34:42.634Z,11.00
2022-11-10T02:38:24.387Z,11.10
2022-11-10T02:42:10.358Z,11.20
2022-11-10T02:45:52.221Z,11.30
2022-11-10T02:49:34.027Z,11.40
2022-11-10T02:53:15.707Z,11.50
2022-11-10T02:56:57.785Z,11.40
2022-11-10T03:00:39.580Z,11.60
2022-11-10T03:04:21.269Z,11.60
2022-11-10T03:08:04.396Z,11.60
2022-11-10T03:11:46.496Z,11.70
2022-11-10T03:15:28.487Z,11.70
2022-11-10T03:19:10.248Z,11.80
2022-11-10T03:22:51.918Z,11.80
2022-11-10T03:26:33.608Z,11.80
2022-11-10T03:30:15.467Z,11.80
2022-11-10T03:33:57.186Z,11.90
2022-11-10T03:37:41.719Z,11.90
2022-11-10T03:41:23.511Z,11.90
2022-11-10T03:45:05.690Z,12.00
2022-11-10T03:48:53.132Z,12.00
2022-11-10T03:52:35.256Z,12.00
2022-11-10T03:56:17.040Z,12.00
2022-11-10T03:59:58.764Z,12.10
2022-11-10T04:03:40.758Z,12.00
2022-11-10T04:07:41.329Z,12.10
2022-11-10T04:11:41.486Z,12.10
2022-11-10T04:15:41.797Z,12.10
2022-11-10T04:19:24.117Z,12.10
2022-11-10T04:23:24.568Z,12.00
2022-11-10T04:27:06.479Z,12.00
2022-11-10T04:30:48.171Z,11.90
2022-11-10T04:38:15.128Z,11.80
2022-11-10T04:42:02.286Z,11.70
2022-11-10T04:45:44.666Z,11.70
2022-11-10T04:49:26.499Z,11.70
2022-11-10T04:53:08.362Z,11.70
2022-11-10T04:56:50.094Z,11.70
2022-11-10T05:00:32.341Z,11.70
2022-11-10T05:04:14.225Z,11.60
2022-11-10T05:07:56.277Z,11.60
2022-11-10T05:11:37.993Z,11.60
2022-11-10T05:15:19.768Z,11.60
2022-11-10T05:19:01.678Z,11.70
2022-11-10T05:23:08.297Z,11.70
2022-11-10T05:26:50.043Z,11.80
2022-11-10T05:30:32.305Z,11.80
2022-11-10T05:34:14.506Z,11.90
2022-11-10T05:37:56.262Z,12.00
2022-11-10T05:41:38.184Z,12.00
2022-11-10T05:45:22.328Z,12.00
2022-11-10T05:49:04.165Z,12.10
2022-11-10T05:52:51.309Z,12.20
2022-11-10T05:56:33.028Z,12.10
2022-11-10T06:00:20.814Z,12.20
2022-11-10T06:04:02.713Z,12.30
2022-11-10T06:07:44.470Z,12.30
2022-11-10T06:11:26.179Z,12.30
2022-11-10T06:15:10.250Z,12.40
2022-11-10T06:18:51.970Z,12.40
2022-11-10T06:22:33.757Z,12.40
2022-11-10T06:26:15.525Z,12.40
2022-11-10T06:29:57.225Z,12.40
2022-11-10T06:33:38.988Z,12.50
2022-11-10T06:37:20.755Z,12.50
2022-11-10T06:41:02.446Z,12.50
2022-11-10T06:44:44.162Z,12.50
2022-11-10T06:48:27.366Z,12.50
2022-11-10T06:52:10.217Z,12.50
2022-11-10T06:55:52.005Z,12.50
2022-11-10T06:59:35.019Z,12.50
2022-11-10T07:03:16.867Z,12.50
2022-11-10T07:06:58.623Z,12.50
2022-11-10T07:10:40.503Z,12.50
2022-11-10T07:14:22.211Z,12.50
2022-11-10T07:18:05.454Z,12.60
2022-11-10T07:21:47.157Z,12.60
2022-11-10T07:25:30.580Z,12.60
2022-11-10T07:29:12.280Z,12.60
2022-11-10T07:33:06.728Z,12.70
2022-11-10T07:36:48.625Z,12.70
2022-11-10T07:40:30.725Z,12.70
2022-11-10T07:44:12.490Z,12.80
2022-11-10T07:48:01.463Z,12.80
2022-11-10T07:51:43.890Z,12.80
2022-11-10T07:55:25.669Z,12.90
2022-11-10T07:59:07.426Z,12.90
2022-11-10T08:02:49.117Z,12.90
2022-11-10T08:06:35.937Z,12.90
2022-11-10T08:10:18.612Z,13.00
2022-11-10T08:14:00.300Z,13.00
2022-11-10T08:17:42.003Z,13.00
2022-11-10T08:21:23.740Z,13.00
2022-11-10T08:25:05.851Z,12.90
2022-11-10T08:28:47.894Z,12.90
2022-11-10T08:32:29.615Z,12.90
2022-11-10T08:36:11.405Z,13.00
2022-11-10T08:39:53.123Z,13.10
2022-11-10T08:43:34.847Z,13.20
2022-11-10T08:47:16.560Z,13.20
2022-11-10T08:51:00.185Z,13.30
2022-11-10T08:54:41.959Z,13.40
2022-11-10T08:58:24.267Z,13.40
2022-11-10T09:02:07.300Z,13.50
2022-11-10T09:05:55.227Z,13.50
2022-11-10T09:09:39.838Z,13.60
2022-11-10T09:13:27.847Z,13.50
2022-11-10T09:17:11.446Z,13.50
2022-11-10T09:20:53.200Z,13.50
2022-11-10T09:24:34.975Z,13.50
2022-11-10T09:28:17.478Z,13.50
2022-11-10T09:31:59.162Z,13.50
2022-11-10T09:35:41.229Z,13.60
2022-11-10T09:39:23.017Z,13.60
2022-11-10T09:43:08.480Z,13.70
2022-11-10T09:47:55.649Z,13.70
2022-11-10T09:51:35.938Z,13.80
2022-11-10T09:55:17.620Z,13.90
2022-11-10T09:59:00.011Z,13.90
2022-11-10T10:02:50.728Z,13.90
2022-11-10T10:06:56.936Z,14.00
2022-11-10T10:10:59.188Z,14.00
2022-11-10T10:15:03.069Z,14.00
2022-11-10T10:18:53.938Z,14.00
2022-11-10T10:23:04.142Z,14.10
2022-11-10T10:26:53.881Z,14.10
2022-11-10T10:30:35.690Z,14.00
2022-11-10T10:34:21.334Z,14.00
2022-11-10T10:38:05.938Z,14.00
2022-11-10T10:41:47.671Z,14.00
2022-11-10T10:45:30.797Z,14.00
2022-11-10T10:49:28.712Z,14.10
2022-11-10T10:53:20.306Z,14.10
2022-11-10T10:57:06.989Z,14.20
2022-11-10T11:00:56.372Z,14.20
2022-11-10T11:04:38.232Z,14.20
2022-11-10T11:08:20.806Z,14.20
2022-11-10T11:12:10.471Z,14.20
2022-11-10T11:16:07.860Z,14.20
2022-11-10T11:19:59.925Z,14.20
2022-11-10T11:24:35.390Z,14.20
2022-11-10T11:28:40.345Z,14.20
2022-11-10T11:32:51.620Z,14.30
2022-11-10T11:37:19.203Z,14.30
2022-11-10T11:41:21.358Z,14.30
2022-11-10T11:45:29.708Z,14.30
2022-11-10T11:49:26.319Z,14.40
2022-11-10T11:53:34.902Z,14.40
2022-11-10T11:57:40.449Z,14.50
2022-11-10T12:01:34.103Z,14.50
2022-11-10T12:05:46.323Z,14.50
2022-11-10T12:09:31.067Z,14.50
2022-11-10T12:13:24.843Z,14.60
2022-11-10T12:17:32.192Z,14.60
2022-11-10T12:21:37.376Z,14.60
2022-11-10T12:25:42.501Z,14.60
2022-11-10T12:29:48.387Z,14.70
2022-11-10T12:33:47.453Z,14.70
2022-11-10T12:37:41.080Z,14.70
2022-11-10T12:41:25.946Z,14.70
2022-11-10T12:45:45.569Z,14.80
2022-11-10T12:49:37.595Z,14.80
2022-11-10T12:53:29.116Z,14.80
2022-11-10T12:57:21.675Z,14.70
2022-11-10T13:01:07.470Z,14.60
2022-11-10T13:05:28.307Z,14.60
2022-11-10T13:09:21.687Z,14.50
2022-11-10T13:13:06.172Z,14.40
2022-11-10T13:16:54.275Z,14.50
2022-11-10T13:20:39.179Z,14.60
2022-11-10T13:24:28.183Z,14.50
2022-11-10T13:28:11.481Z,14.50
2022-11-10T13:31:56.445Z,14.50
2022-11-10T13:35:38.115Z,14.60
2022-11-10T13:39:19.858Z,14.50
2022-11-10T13:43:01.544Z,14.50
2022-11-10T13:46:59.496Z,14.50
2022-11-10T13:50:59.307Z,14.50
2022-11-10T13:55:13.190Z,14.40
2022-11-10T13:58:58.066Z,14.40
2022-11-10T14:02:50.775Z,14.40
2022-11-10T14:06:51.844Z,14.40
2022-11-10T14:11:04.604Z,14.30
2022-11-10T14:15:02.153Z,14.30
2022-11-10T14:19:02.870Z,14.30
2022-11-10T14:22:44.569Z,14.30
2022-11-10T14:26:29.617Z,14.30
2022-11-10T14:30:26.303Z,14.30
2022-11-10T14:34:15.646Z,14.30
2022-11-10T14:38:01.674Z,14.30
2022-11-10T14:41:47.824Z,14.20
2022-11-10T14:45:29.919Z,14.20
2022-11-10T14:49:11.659Z,14.10
2022-11-10T14:53:30.842Z,14.10
2022-11-10T14:57:18.103Z,14.10
2022-11-10T15:01:01.298Z,14.00
2022-11-10T15:04:46.224Z,14.10
2022-11-10T15:08:29.396Z,14.10
2022-11-10T15:12:22.073Z,14.00
2022-11-10T15:16:28.918Z,14.00
2022-11-10T15:20:47.252Z,13.90
2022-11-10T15:24:29.017Z,13.90
2022-11-10T15:28:13.896Z,13.80
2022-11-10T15:31:55.901Z,13.80
2022-11-10T15:35:37.862Z,13.80
2022-11-10T15:39:25.060Z,13.80
2022-11-10T15:43:12.815Z,13.80
2022-11-10T15:46:57.685Z,13.90
2022-11-10T15:50:45.112Z,13.90
2022-11-10T15:54:30.155Z,13.80
2022-11-10T15:58:16.957Z,13.80
2022-11-10T16:01:59.351Z,13.80
2022-11-10T16:05:41.555Z,13.80
2022-11-10T16:09:23.532Z,13.80
2022-11-10T16:13:05.631Z,13.80
2022-11-10T16:16:47.583Z,13.80
2022-11-10T16:20:29.283Z,13.80
2022-11-10T16:24:11.280Z,13.80
2022-11-10T16:27:54.025Z,13.80
2022-11-10T16:31:38.284Z,13.80
2022-11-10T16:35:20.081Z,13.80
2022-11-10T16:39:04.587Z,13.80
2022-11-10T16:42:46.381Z,13.80
2022-11-10T16:46:31.026Z,13.80
2022-11-10T16:50:35.000Z,13.80
2022-11-10T16:54:18.173Z,13.80
2022-11-10T16:58:00.373Z,13.90
2022-11-10T17:01:44.589Z,13.90
2022-11-10T17:05:26.506Z,13.80
2022-11-10T17:09:17.682Z,13.80
2022-11-10T17:12:59.438Z,13.80
2022-11-10T17:16:43.996Z,13.80
2022-11-10T17:20:48.481Z,13.80
2022-11-10T17:24:30.228Z,13.80
2022-11-10T17:28:17.987Z,13.90
2022-11-10T17:32:00.102Z,13.80
2022-11-10T17:35:50.674Z,13.90
2022-11-10T17:39:34.738Z,13.90
2022-11-10T17:43:16.847Z,13.90
2022-11-10T17:46:58.550Z,13.90
2022-11-10T17:50:42.047Z,13.90
2022-11-10T17:54:24.307Z,13.90
2022-11-10T17:58:06.185Z,13.90
2022-11-10T18:01:48.119Z,13.90
2022-11-10T18:05:29.840Z,13.90
2022-11-10T18:09:11.546Z,14.00
2022-11-10T18:12:54.723Z,14.00
2022-11-10T18:16:36.556Z,14.00
2022-11-10T18:20:18.383Z,14.00
2022-11-10T18:24:00.175Z,14.00
2022-11-10T18:27:42.116Z,14.00
2022-11-10T18:31:23.823Z,14.00
2022-11-10T18:35:05.731Z,14.00
2022-11-10T18:38:47.513Z,14.10
2022-11-10T18:42:29.212Z,14.00
2022-11-10T18:46:10.931Z,14.10
2022-11-10T18:49:53.866Z,14.10
2022-11-10T18:53:38.227Z,14.10
2022-11-10T18:57:20.258Z,14.10
2022-11-10T19:01:10.245Z,14.20
2022-11-10T19:04:53.788Z,14.20
2022-11-10T19:08:36.556Z,14.20
2022-11-10T19:12:23.925Z,14.20
2022-11-10T19:16:11.378Z,14.20
2022-11-10T19:19:56.616Z,14.20
2022-11-10T19:23:39.365Z,14.20
2022-11-10T19:27:21.075Z,14.10
2022-11-10T19:31:04.955Z,14.10
2022-11-10T19:34:46.660Z,14.10
2022-11-10T19:38:28.966Z,14.00
2022-11-10T19:42:12.367Z,14.00
2022-11-10T19:45:54.113Z,13.90
2022-11-10T19:49:38.659Z,13.80
2022-11-10T19:53:20.812Z,13.80
2022-11-10T19:57:02.899Z,13.80
2022-11-10T20:00:49.221Z,13.70
2022-11-10T20:04:31.012Z,13.70
2022-11-10T20:08:15.586Z,13.80
2022-11-10T20:11:57.303Z,13.70
2022-11-10T20:15:40.604Z,13.80
2022-11-10T20:19:22.411Z,13.70
2022-11-10T20:23:05.756Z,13.80
2022-11-10T20:26:49.948Z,13.80
2022-11-10T20:30:32.957Z,13.80
2022-11-10T20:34:15.283Z,13.80
2022-11-10T20:37:57.736Z,13.70
2022-11-10T20:41:39.505Z,13.70
2022-11-10T20:45:21.462Z,13.70
2022-11-10T20:49:03.451Z,13.70
2022-11-10T20:52:45.236Z,13.70
2022-11-10T20:56:29.898Z,13.70
2022-11-10T21:00:12.285Z,13.60
2022-11-10T21:03:54.608Z,13.60
2022-11-10T21:07:36.325Z,13.60
2022-11-10T21:11:38.121Z,13.60
2022-11-10T21:15:20.522Z,13.60
2022-11-10T21:19:02.246Z,13.60
2022-11-10T21:22:44.000Z,13.60
2022-11-10T21:26:25.769Z,13.70
2022-11-10T21:30:13.015Z,13.60
2022-11-10T21:33:57.206Z,13.60
2022-11-10T21:37:38.966Z,13.60
2022-11-10T21:41:20.692Z,13.60
2022-11-10T21:45:02.470Z,13.60
2022-11-10T21:48:44.243Z,13.60
2022-11-10T21:52:25.977Z,13.70
2022-11-10T21:56:09.767Z,13.70
2022-11-10T21:59:51.560Z,13.60
2022-11-10T22:03:34.642Z,13.60
2022-11-10T22:07:25.372Z,13.60
2022-11-10T22:11:30.343Z,13.60
2022-11-10T22:15:33.249Z,13.50
2022-11-10T22:19:15.091Z,13.50
2022-11-10T22:22:56.808Z,13.60
2022-11-10T22:26:38.644Z,13.60
2022-11-10T22:30:20.374Z,13.60
2022-11-10T22:34:02.543Z,13.70
2022-11-10T22:37:44.314Z,13.70
2022-11-10T22:41:47.944Z,13.80
2022-11-10T22:45:30.157Z,13.90
2022-11-10T22:49:14.665Z,13.90
2022-11-10T22:52:57.585Z,13.90
2022-11-10T22:56:40.570Z,13.90
2022-11-10T23:00:22.427Z,14.00
2022-11-10T23:04:04.516Z,13.90
2022-11-10T23:07:46.259Z,13.90
2022-11-10T23:11:30.261Z,13.80
2022-11-10T23:15:12.193Z,13.80
2022-11-10T23:18:55.664Z,13.90
2022-11-10T23:22:37.467Z,13.90
2022-11-10T23:26:29.948Z,13.90
2022-11-10T23:30:12.051Z,13.90
2022-11-10T23:33:55.378Z,14.00
2022-11-10T23:37:37.611Z,14.10
2022-11-10T23:41:23.906Z,14.10
2022-11-10T23:45:06.260Z,14.10
2022-11-10T23:48:47.988Z,14.20
2022-11-10T23:52:29.674Z,14.20
2022-11-10T23:56:13.252Z,14.20
2022-11-10T23:59:54.967Z,14.20
